Main page
METAR-TAF:

METAR-TAF

Airports :

José Martí International Airport

Havana, Cuba

latitude: 22-59N, longitude: 082-24W, elevation: 59 m

Current weather observation

The report was made 1 hour and 5 minutes ago, at 16:55 UTC
Wind 5 kt from the South/Southwest, varying between South/Southeast and West/Southwest
Temperature 27°C
Humidity 51%
Pressure 1015 hPa
Visibility: 9000 m

METAR: MUHA 271655Z 20005KT 150V240 9000 NSC 27/16 Q1015

Time: 13:00 (18:00 UTC)

Forecast

The report was made 1 hour and 0 minutes ago, at 17:00 UTC
Forecast valid from 27 at 18 UTC to 28 at 18 UTC
Wind 10 kt from the South
Visibility: 9000 m
Scattered clouds at a height of 3000 ft
Temporary
from 28 at 03 UTC to 28 at 08 UTC
Wind 5 kt from the West/Southwest
Visibility: 5000 m
Few clouds at a height of 2000 ft, Cumulonimbus.
rain showers
Becoming
from 28 at 10 UTC to 28 at 12 UTC
Wind 6 kt from the Northwest

TAF: MUHA 271700Z 2718/2818 18010KT 9000 SCT030 TEMPO 2803/2808 24005KT 5000 SHRA FEW020CB BECMG 2810/2812 32006KT

Weather observations and forecasts of more than 4000 airports (METAR and TAF reports).

The available stations are represented by yellow and red dots on the map.

Hover mouse over dot to see the name of the station.

Then click to see weather observations and forecasts.

To change the map : click on the green buttons with a black cross to zoom in, on the green button with a dash to zoom out, or on the green arrows for adjacent maps.


METAR-TAF: